Time;durP1;ratioP1;P1;durP2;ratioP2;P2;SDS_P1;SDS_P2;PMS_P1;PMS_P2;Temp;Humidity;BMP_temperature;BMP_pressure;BME280_temperature;BME280_humidity;BME280_pressure;Samples;Min_cycle;Max_cycle;Signal;HPM_P1;HPM_P2
2022/01/31 00:00:36;;;;;;;25.60;9.55;;;;;;;3.76;89.35;101158.25;5040593;28;20103;-63
2022/01/31 00:03:02;;;;;;;20.63;9.13;;;;;;;3.75;89.49;101156.47;5042251;28;20115;-63
2022/01/31 00:05:28;;;;;;;27.38;9.45;;;;;;;3.76;89.50;101143.38;5040044;28;20037;-63
2022/01/31 00:07:54;;;;;;;28.13;8.73;;;;;;;3.77;89.67;101142.47;5042520;28;20488;-63
2022/01/31 00:10:27;;;;;;;26.50;8.65;;;;;;;3.78;89.63;101130.28;5042215;28;20044;-63
2022/01/31 00:13:12;;;;;;;17.45;8.32;;;;;;;3.78;89.21;101109.31;5042210;28;20032;-63
2022/01/31 00:15:41;;;;;;;28.88;8.20;;;;;;;3.78;89.64;101096.22;5040881;28;20036;-63
2022/01/31 00:18:06;;;;;;;22.08;8.00;;;;;;;3.78;89.35;101072.66;5042028;28;20029;-64
2022/01/31 00:20:32;;;;;;;21.90;7.10;;;;;;;3.78;89.61;101063.03;5040952;28;20087;-64
2022/01/31 00:22:58;;;;;;;20.17;7.55;;;;;;;3.80;89.29;101063.00;5041871;28;20400;-64
2022/01/31 00:25:23;;;;;;;22.02;7.55;;;;;;;3.78;89.43;101063.03;5040209;28;20028;-64
2022/01/31 00:27:49;;;;;;;17.52;7.38;;;;;;;3.78;89.52;101044.72;5041783;28;20031;-64
2022/01/31 00:30:15;;;;;;;23.17;7.47;;;;;;;3.77;89.50;101037.72;5041904;28;20116;-64
2022/01/31 00:32:41;;;;;;;22.45;7.38;;;;;;;3.78;89.78;101033.34;5048897;28;20037;-64
2022/01/31 00:35:07;;;;;;;23.60;7.63;;;;;;;3.78;89.64;101015.03;5038879;28;20025;-64
2022/01/31 00:37:32;;;;;;;19.17;7.65;;;;;;;3.77;89.72;101010.69;5041611;28;20125;-64
2022/01/31 00:39:58;;;;;;;18.55;6.93;;;;;;;3.77;89.80;101001.06;5042276;28;20052;-64
2022/01/31 00:42:25;;;;;;;20.13;7.38;;;;;;;3.76;90.20;100991.47;5039609;28;20108;-64
2022/01/31 00:44:54;;;;;;;24.88;7.80;;;;;;;3.74;90.09;100976.66;5041296;28;21505;-63
2022/01/31 00:47:25;;;;;;;18.63;8.02;;;;;;;3.74;90.41;100966.19;5041173;28;20036;-64
2022/01/31 00:50:05;;;;;;;22.23;7.95;;;;;;;3.73;90.27;100938.25;5040142;28;20032;-63
2022/01/31 00:52:31;;;;;;;26.48;8.25;;;;;;;3.73;90.98;100947.00;5040279;28;21348;-63
2022/01/31 00:54:57;;;;;;;31.63;9.45;;;;;;;3.71;90.91;100929.56;5041083;28;20040;-63
2022/01/31 00:57:22;;;;;;;22.02;8.50;;;;;;;3.71;91.10;100924.34;5041835;28;20036;-63
2022/01/31 00:59:50;;;;;;;28.38;9.48;;;;;;;3.69;90.92;100920.88;5039641;28;20809;-64
2022/01/31 01:02:17;;;;;;;23.67;9.15;;;;;;;3.65;91.64;100905.22;5041058;28;20271;-63
2022/01/31 01:04:43;;;;;;;24.58;9.15;;;;;;;3.64;91.34;100900.00;5040912;28;20465;-63
2022/01/31 01:07:09;;;;;;;22.88;9.40;;;;;;;3.63;91.37;100882.56;5041610;28;20033;-63
2022/01/31 01:09:34;;;;;;;23.85;10.20;;;;;;;3.62;91.43;100875.59;5040529;28;20566;-63
2022/01/31 01:11:59;;;;;;;24.45;9.43;;;;;;;3.61;91.72;100874.75;5041662;28;20495;-63
2022/01/31 01:14:25;;;;;;;21.40;9.18;;;;;;;3.61;91.76;100863.41;5041046;28;20039;-63
2022/01/31 01:16:50;;;;;;;20.98;8.88;;;;;;;3.58;91.68;100864.31;5041029;28;20035;-63
2022/01/31 01:19:16;;;;;;;26.80;9.40;;;;;;;3.57;92.41;100856.47;5039367;28;20464;-64
2022/01/31 01:21:41;;;;;;;22.08;8.18;;;;;;;3.56;92.29;100841.66;5041122;28;20090;-63
2022/01/31 01:24:07;;;;;;;12.27;6.60;;;;;;;3.52;92.09;100840.84;5040640;28;20147;-63
2022/01/31 01:26:33;;;;;;;14.95;6.50;;;;;;;3.50;92.55;100821.69;5040960;28;20039;-63
2022/01/31 01:28:58;;;;;;;10.13;5.78;;;;;;;3.46;92.22;100817.38;5041275;28;20051;-64
2022/01/31 01:31:24;;;;;;;11.70;5.07;;;;;;;3.44;92.50;100809.56;5040532;28;20548;-64
2022/01/31 01:33:49;;;;;;;7.82;3.83;;;;;;;3.42;92.58;100786.91;5039471;28;20451;-63
2022/01/31 01:36:15;;;;;;;8.30;3.60;;;;;;;3.40;92.69;100777.31;5040137;28;20044;-64
2022/01/31 01:38:41;;;;;;;7.78;3.20;;;;;;;3.42;92.82;100755.50;5039884;28;20044;-63
2022/01/31 01:41:06;;;;;;;8.35;2.95;;;;;;;3.41;92.75;100738.94;5040621;28;20056;-64
2022/01/31 01:43:32;;;;;;;8.65;3.45;;;;;;;3.39;93.22;100723.25;5040616;28;20698;-63
2022/01/31 01:45:59;;;;;;;10.85;3.85;;;;;;;3.39;93.08;100712.78;5039897;28;20048;-64
2022/01/31 01:48:25;;;;;;;10.93;4.90;;;;;;;3.40;93.24;100705.78;5039804;28;20033;-64
2022/01/31 01:50:51;;;;;;;11.23;5.43;;;;;;;3.40;93.23;100687.47;5040134;28;20036;-63
2022/01/31 01:53:17;;;;;;;10.45;5.15;;;;;;;3.40;93.24;100667.38;5040844;28;20040;-62
2022/01/31 01:55:46;;;;;;;8.82;4.82;;;;;;;3.41;93.53;100644.69;5040341;28;20045;-63
2022/01/31 01:58:16;;;;;;;9.85;4.57;;;;;;;3.42;93.95;100632.50;5039941;28;20032;-63
2022/01/31 02:00:50;;;;;;;11.07;5.07;;;;;;;3.44;93.66;100628.09;5038951;28;20037;-62
2022/01/31 02:03:20;;;;;;;13.20;5.50;;;;;;;3.43;93.89;100619.34;5055221;28;20719;-63
2022/01/31 02:05:46;;;;;;;11.75;5.45;;;;;;;3.43;94.27;100610.66;5038958;28;20721;-63
2022/01/31 02:08:13;;;;;;;11.80;4.90;;;;;;;3.45;94.24;100607.13;5040349;28;20020;-63
2022/01/31 02:10:40;;;;;;;11.50;4.70;;;;;;;3.46;94.10;100601.00;5039949;28;20055;-62
2022/01/31 02:13:07;;;;;;;11.00;5.00;;;;;;;3.47;94.28;100591.38;5040280;28;20404;-63
2022/01/31 02:15:33;;;;;;;12.25;3.92;;;;;;;3.48;94.81;100578.25;5039603;28;20045;-63
2022/01/31 02:17:58;;;;;;;15.32;4.50;;;;;;;3.49;94.61;100566.03;5038391;28;20128;-63
2022/01/31 02:20:24;;;;;;;15.05;4.00;;;;;;;3.50;94.96;100559.91;5038462;28;20036;-63
2022/01/31 02:22:50;;;;;;;13.63;3.72;;;;;;;3.51;94.80;100546.78;5041005;28;20025;-63
2022/01/31 02:25:15;;;;;;;11.07;3.63;;;;;;;3.57;94.77;100529.22;5039533;28;20043;-63
2022/01/31 02:27:42;;;;;;;13.68;3.67;;;;;;;3.60;95.39;100527.38;5039367;28;20075;-63
2022/01/31 02:30:10;;;;;;;11.13;2.92;;;;;;;3.64;95.69;100518.59;5039722;28;20032;-63
2022/01/31 02:32:37;;;;;;;11.85;3.10;;;;;;;3.72;95.51;100525.41;5037880;28;20054;-63
2022/01/31 02:35:03;;;;;;;13.98;3.17;;;;;;;3.76;95.58;100516.59;5038881;28;21448;-63
2022/01/31 02:37:28;;;;;;;15.07;3.78;;;;;;;3.82;96.22;100506.00;5039404;28;20040;-63
2022/01/31 02:39:54;;;;;;;17.70;4.25;;;;;;;3.87;96.06;100498.03;5039534;28;20033;-64
2022/01/31 02:42:19;;;;;;;20.08;3.65;;;;;;;3.92;96.58;100481.28;5039434;28;20051;-64
2022/01/31 02:44:46;;;;;;;22.98;4.88;;;;;;;3.98;96.30;100474.19;5039341;28;20455;-64
2022/01/31 02:47:16;;;;;;;23.33;4.72;;;;;;;4.05;96.61;100470.53;5040081;28;20094;-64
2022/01/31 02:49:49;;;;;;;25.13;4.88;;;;;;;4.18;96.86;100471.94;5038236;28;20160;-64
2022/01/31 02:52:16;;;;;;;;;;;;;;;4.30;97.06;100457.66;5039805;28;20067;-64
2022/01/31 02:54:42;;;;;;;27.63;4.38;;;;;;;4.41;96.39;100457.38;5039314;28;19924;-64
2022/01/31 02:57:08;;;;;;;33.55;5.38;;;;;;;4.51;96.79;100454.53;5038798;28;20029;-64
2022/01/31 02:59:34;;;;;;;26.83;4.60;;;;;;;4.60;96.60;100451.66;5034307;28;20036;-64
2022/01/31 03:01:59;;;;;;;30.42;5.15;;;;;;;4.68;96.75;100447.06;5045913;28;20494;-64
2022/01/31 03:04:25;;;;;;;27.48;4.97;;;;;;;4.73;96.42;100455.69;5038010;28;20131;-64
2022/01/31 03:06:53;;;;;;;24.60;4.57;;;;;;;4.79;96.78;100446.78;5039337;28;20033;-64
2022/01/31 03:09:18;;;;;;;35.47;5.93;;;;;;;4.82;97.39;100446.69;5039338;28;20041;-64
2022/01/31 03:11:44;;;;;;;28.48;4.70;;;;;;;4.85;97.23;100435.28;5038765;28;20051;-64
2022/01/31 03:14:10;;;;;;;31.73;4.68;;;;;;;4.87;97.16;100433.44;5042870;28;20032;-65
2022/01/31 03:16:40;;;;;;;24.83;4.35;;;;;;;4.88;97.14;100429.91;5042636;28;20037;-64
2022/01/31 03:19:07;;;;;;;23.63;3.75;;;;;;;4.89;97.12;100431.63;5041891;28;20067;-65
2022/01/31 03:21:33;;;;;;;29.08;4.25;;;;;;;4.91;96.79;100424.59;5042168;28;20033;-64
2022/01/31 03:23:58;;;;;;;22.98;4.60;;;;;;;4.93;97.26;100406.16;5047394;28;20833;-64
2022/01/31 03:26:24;;;;;;;21.33;4.70;;;;;;;4.94;96.83;100407.88;5043399;28;21444;-64
2022/01/31 03:28:52;;;;;;;28.27;4.15;;;;;;;4.96;96.84;100411.34;5042156;28;20036;-64
2022/01/31 03:31:18;;;;;;;30.67;4.30;;;;;;;4.96;96.91;100406.94;5043619;28;21516;-64
2022/01/31 03:33:45;;;;;;;29.65;4.60;;;;;;;4.97;97.21;100387.66;5040886;28;20044;-65
2022/01/31 03:36:11;;;;;;;23.08;4.60;;;;;;;4.97;96.93;100377.19;5041471;28;20032;-64
2022/01/31 03:38:40;;;;;;;23.05;3.88;;;;;;;5.00;97.41;100391.97;5040502;28;20643;-64
2022/01/31 03:41:17;;;;;;;25.45;4.00;;;;;;;5.00;96.84;100384.09;5042279;28;20057;-64
2022/01/31 03:43:43;;;;;;;24.27;4.03;;;;;;;4.98;97.31;100375.41;5040851;28;20120;-65
2022/01/31 03:46:08;;;;;;;23.42;4.18;;;;;;;4.99;97.45;100379.75;5047666;28;20648;-64
2022/01/31 03:48:34;;;;;;;24.95;4.35;;;;;;;4.97;97.25;100387.66;5041732;28;20033;-64
2022/01/31 03:51:02;;;;;;;33.40;4.28;;;;;;;4.97;97.32;100371.94;5041735;28;20044;-65
2022/01/31 03:53:28;;;;;;;22.50;3.78;;;;;;;4.95;97.05;100375.53;5042424;28;20551;-64
2022/01/31 03:55:54;;;;;;;25.17;3.42;;;;;;;4.94;97.29;100382.53;5041240;28;20033;-64
2022/01/31 03:58:19;;;;;;;23.70;3.35;;;;;;;4.92;96.82;100367.72;5042699;28;20029;-64
2022/01/31 04:00:45;;;;;;;24.00;3.65;;;;;;;4.91;96.44;100360.78;5042498;28;20037;-64
2022/01/31 04:03:11;;;;;;;25.08;4.68;;;;;;;4.87;96.75;100353.00;5043157;28;20040;-64
2022/01/31 04:05:37;;;;;;;25.15;3.78;;;;;;;4.85;96.36;100361.81;5042044;28;20099;-64
2022/01/31 04:08:04;;;;;;;34.92;4.03;;;;;;;4.82;96.82;100354.03;5042453;28;20766;-64
2022/01/31 04:10:30;;;;;;;23.27;4.00;;;;;;;4.79;96.82;100347.09;5042380;28;20028;-65
2022/01/31 04:12:55;;;;;;;20.05;4.20;;;;;;;4.78;96.34;100360.28;5042671;28;20525;-65
2022/01/31 04:15:21;;;;;;;19.55;2.60;;;;;;;4.75;96.46;100346.31;5042872;28;20064;-64
2022/01/31 04:17:47;;;;;;;24.73;3.33;;;;;;;4.71;96.56;100330.72;5041661;28;20112;-65
2022/01/31 04:20:13;;;;;;;20.63;3.17;;;;;;;4.65;96.90;100318.66;5041047;28;20077;-64
2022/01/31 04:23:05;;;;;;;19.77;3.10;;;;;;;4.62;96.70;100334.47;5041835;28;20035;-64
2022/01/31 04:25:42;;;;;;;22.48;3.25;;;;;;;4.60;97.05;100341.53;5041742;28;20060;-63
2022/01/31 04:28:17;;;;;;;;;;;;;;;4.55;97.45;100331.19;5042302;28;20448;-64
2022/01/31 04:30:50;;;;;;;21.00;3.13;;;;;;;4.54;97.40;100341.72;5041689;28;19921;-64
2022/01/31 04:33:16;;;;;;;;;;;;;;;4.54;98.22;100325.97;5041552;28;20536;-64
2022/01/31 04:35:41;;;;;;;28.83;3.92;;;;;;;4.52;97.73;100318.16;5041415;28;19936;-63
2022/01/31 04:38:07;;;;;;;21.52;3.90;;;;;;;4.54;97.56;100347.81;5041268;28;20508;-65
2022/01/31 04:40:32;;;;;;;18.02;2.80;;;;;;;4.53;97.41;100356.56;5041725;28;20057;-63
2022/01/31 04:42:58;;;;;;;10.75;1.80;;;;;;;4.44;97.64;100341.97;5042172;28;20033;-64
2022/01/31 04:45:24;;;;;;;10.27;1.65;;;;;;;4.38;97.49;100336.91;5041798;28;20036;-64
2022/01/31 04:47:49;;;;;;;13.30;1.90;;;;;;;4.34;97.41;100332.63;5039689;28;20483;-63
2022/01/31 04:50:15;;;;;;;19.02;2.75;;;;;;;4.27;97.71;100333.72;5041413;28;20141;-63
2022/01/31 04:52:42;;;;;;;10.93;1.77;;;;;;;4.22;97.59;100323.34;5042537;28;20242;-63
2022/01/31 04:55:09;;;;;;;14.32;1.95;;;;;;;4.15;97.61;100322.66;5039527;28;20047;-63
2022/01/31 04:57:34;;;;;;;14.75;1.55;;;;;;;4.12;97.81;100314.00;5041378;28;20029;-63
2022/01/31 05:00:00;;;;;;;14.55;2.33;;;;;;;4.07;97.79;100312.41;5042375;28;20029;-63
2022/01/31 05:02:26;;;;;;;19.95;1.83;;;;;;;4.03;98.07;100297.66;5041598;28;20099;-63
2022/01/31 05:04:51;;;;;;;13.70;1.80;;;;;;;4.02;97.68;100302.91;5040287;28;20094;-63
2022/01/31 05:07:17;;;;;;;11.68;1.80;;;;;;;4.01;98.30;100299.47;5039619;28;20744;-63
2022/01/31 05:09:44;;;;;;;10.60;2.50;;;;;;;4.02;98.13;100289.81;5039252;28;20423;-64
2022/01/31 05:12:10;;;;;;;16.67;2.58;;;;;;;4.01;98.37;100277.63;5039589;28;20094;-63
2022/01/31 05:14:36;;;;;;;15.30;2.35;;;;;;;4.01;98.04;100275.00;5041306;28;20036;-63
2022/01/31 05:17:01;;;;;;;13.73;1.95;;;;;;;4.02;98.49;100271.47;5040864;28;20051;-64
2022/01/31 05:19:27;;;;;;;21.77;2.92;;;;;;;4.01;98.26;100280.25;5039682;28;20024;-63
2022/01/31 05:21:52;;;;;;;22.20;2.63;;;;;;;4.02;98.15;100268.88;5041381;28;20055;-63
2022/01/31 05:24:18;;;;;;;14.50;2.17;;;;;;;4.01;98.35;100262.78;5041539;28;20036;-63
2022/01/31 05:26:43;;;;;;;22.98;2.45;;;;;;;4.02;98.60;100258.38;5038743;28;20037;-63
2022/01/31 05:29:09;;;;;;;22.15;2.50;;;;;;;4.03;98.67;100257.50;5040643;28;20103;-63
2022/01/31 05:31:34;;;;;;;20.40;3.20;;;;;;;4.04;98.55;100248.75;5040956;28;20406;-64
2022/01/31 05:34:00;;;;;;;20.25;2.83;;;;;;;4.04;99.01;100246.97;5039766;28;20279;-64
2022/01/31 05:36:25;;;;;;;23.98;2.75;;;;;;;4.07;99.02;100246.03;5040759;28;20075;-64
2022/01/31 05:38:51;;;;;;;20.00;2.85;;;;;;;4.07;98.91;100248.66;5041087;28;20031;-64
2022/01/31 05:41:19;;;;;;;20.63;2.70;;;;;;;4.08;99.17;100239.88;5040159;28;20086;-64
2022/01/31 05:43:48;;;;;;;18.27;2.22;;;;;;;4.08;99.82;100240.75;5040059;28;20028;-64
2022/01/31 05:46:13;;;;;;;17.75;2.20;;;;;;;4.11;99.33;100224.09;5040287;28;20075;-64
2022/01/31 05:48:39;;;;;;;11.23;2.38;;;;;;;4.14;99.41;100237.09;5039636;28;20032;-64
2022/01/31 05:51:11;;;;;;;11.25;2.28;;;;;;;4.16;99.64;100216.97;5037517;28;21996;-64
2022/01/31 05:53:36;;;;;;;18.85;2.90;;;;;;;4.16;99.83;100219.59;5047131;28;20052;-64
2022/01/31 05:56:04;;;;;;;14.52;2.10;;;;;;;4.16;99.78;100209.09;5038562;28;20116;-64
2022/01/31 05:58:29;;;;;;;18.55;2.80;;;;;;;4.18;100.00;100211.66;5039951;28;20033;-64
2022/01/31 06:00:55;;;;;;;19.48;2.40;;;;;;;4.19;99.51;100216.88;5040568;28;21904;-64
2022/01/31 06:03:20;;;;;;;18.55;2.80;;;;;;;4.21;100.00;100203.72;5039837;28;20119;-64
2022/01/31 06:05:46;;;;;;;20.83;2.60;;;;;;;4.23;99.53;100207.16;5039197;28;20047;-64
2022/01/31 06:08:11;;;;;;;11.93;2.50;;;;;;;4.25;100.00;100209.72;5040023;28;20037;-64
2022/01/31 06:10:42;;;;;;;20.77;2.92;;;;;;;4.26;100.00;100206.22;5040258;28;21382;-64
2022/01/31 06:13:08;;;;;;;25.05;3.38;;;;;;;4.25;100.00;100194.84;5040524;28;20077;-64
2022/01/31 06:15:34;;;;;;;14.05;2.38;;;;;;;4.25;99.76;100194.84;5039988;28;20108;-64
2022/01/31 06:17:59;;;;;;;18.60;2.30;;;;;;;4.21;100.00;100201.94;5039003;28;20060;-64
2022/01/31 06:20:25;;;;;;;15.13;1.83;;;;;;;4.18;100.00;100194.19;5039246;28;20578;-64
2022/01/31 06:22:51;;;;;;;15.80;2.40;;;;;;;4.16;99.96;100185.53;5039777;28;20032;-64
2022/01/31 06:25:17;;;;;;;13.55;1.92;;;;;;;4.14;100.00;100181.22;5039028;28;20108;-64
2022/01/31 06:27:43;;;;;;;16.75;2.08;;;;;;;4.12;100.00;100173.41;5039619;28;20037;-64
2022/01/31 06:30:09;;;;;;;14.23;1.90;;;;;;;4.12;100.00;100162.91;5039543;28;20501;-64
2022/01/31 06:32:36;;;;;;;14.23;2.45;;;;;;;4.12;99.99;100162.91;5038406;28;20111;-64
2022/01/31 06:35:01;;;;;;;18.40;2.63;;;;;;;4.13;100.00;100159.41;5038919;28;20025;-64
2022/01/31 06:37:27;;;;;;;20.50;3.17;;;;;;;4.13;100.00;100154.16;5039791;28;20696;-64
2022/01/31 06:39:52;;;;;;;23.50;3.17;;;;;;;4.15;100.00;100139.25;5039234;28;20041;-64
2022/01/31 06:42:18;;;;;;;19.00;3.10;;;;;;;4.16;100.00;100140.97;5039513;28;20049;-64
2022/01/31 06:44:43;;;;;;;25.27;3.70;;;;;;;4.19;100.00;100140.00;5038806;28;20048;-64
2022/01/31 06:47:09;;;;;;;21.38;2.88;;;;;;;4.21;100.00;100131.19;5039313;28;20037;-64
2022/01/31 06:49:34;;;;;;;19.80;2.90;;;;;;;4.25;100.00;100137.19;5038974;28;20040;-64
2022/01/31 06:52:00;;;;;;;19.33;3.13;;;;;;;4.29;100.00;100127.47;5039686;28;20032;-64
2022/01/31 06:54:25;;;;;;;29.80;4.18;;;;;;;4.33;100.00;100131.72;5037663;28;20229;-65
2022/01/31 06:56:51;;;;;;;32.78;3.58;;;;;;;4.34;100.00;100121.22;5039127;28;20049;-64
2022/01/31 06:59:17;;;;;;;23.67;3.25;;;;;;;4.34;100.00;100117.72;5039693;28;20512;-64
2022/01/31 07:01:42;;;;;;;16.67;2.90;;;;;;;4.35;100.00;100122.06;5039167;28;20435;-64
2022/01/31 07:04:08;;;;;;;24.25;3.50;;;;;;;4.34;100.00;100110.72;5038593;28;20028;-64
2022/01/31 07:06:33;;;;;;;22.20;3.28;;;;;;;4.35;100.00;100107.19;5038831;28;20032;-64
2022/01/31 07:08:59;;;;;;;20.13;2.83;;;;;;;4.37;100.00;100107.16;5047111;28;20102;-64
2022/01/31 07:11:29;;;;;;;20.45;3.00;;;;;;;4.38;100.00;100097.50;5039556;28;20442;-64
2022/01/31 07:14:03;;;;;;;19.27;3.25;;;;;;;4.40;100.00;100103.59;5038648;28;20043;-64
2022/01/31 07:16:29;;;;;;;21.35;2.92;;;;;;;4.41;100.00;100094.81;5039177;28;20799;-64
2022/01/31 07:19:04;;;;;;;25.70;4.13;;;;;;;4.41;100.00;100090.41;5037930;28;20064;-64
2022/01/31 07:21:37;;;;;;;33.88;4.15;;;;;;;4.42;100.00;100088.66;5039940;28;20041;-64
2022/01/31 07:24:20;;;;;;;23.25;4.00;;;;;;;4.45;100.00;100084.19;5039366;28;20025;-64
2022/01/31 07:26:46;;;;;;;32.38;4.60;;;;;;;4.47;100.00;100090.22;5039555;28;20044;-64
2022/01/31 07:29:12;;;;;;;37.40;4.47;;;;;;;4.49;100.00;100085.78;5039728;28;20039;-64
2022/01/31 07:31:38;;;;;;;30.80;4.85;;;;;;;4.51;100.00;100079.66;5039522;28;20032;-64
2022/01/31 07:34:04;;;;;;;43.80;5.18;;;;;;;4.54;100.00;100080.41;5037650;28;21743;-64
2022/01/31 07:36:30;;;;;;;32.78;6.05;;;;;;;4.57;100.00;100085.53;5037800;28;20079;-64
2022/01/31 07:38:56;;;;;;;24.10;3.55;;;;;;;4.61;100.00;100099.41;5038971;28;20491;-64
2022/01/31 07:41:21;;;;;;;30.30;4.45;;;;;;;4.64;100.00;100101.94;5020461;28;20230;-64
2022/01/31 07:43:47;;;;;;;27.00;4.28;;;;;;;4.68;100.00;100115.81;5039164;28;20040;-64
2022/01/31 07:46:13;;;;;;;30.52;4.80;;;;;;;4.72;100.00;100122.66;5038584;28;20036;-64
2022/01/31 07:48:38;;;;;;;24.23;3.13;;;;;;;4.75;100.00;100131.28;5020539;28;20036;-64
2022/01/31 07:51:04;;;;;;;24.25;3.45;;;;;;;4.79;100.00;100137.28;5038975;28;20040;-64
2022/01/31 07:53:29;;;;;;;24.38;3.35;;;;;;;4.80;100.00;100149.47;5027988;28;20068;-64
2022/01/31 07:55:55;;;;;;;27.15;3.90;;;;;;;4.80;100.00;100138.16;5036231;28;20232;-65
2022/01/31 07:58:21;;;;;;;21.35;3.10;;;;;;;4.80;100.00;100140.75;5039288;28;20048;-65
2022/01/31 08:00:47;;;;;;;28.42;3.30;;;;;;;4.79;100.00;100150.38;5042263;28;20037;-64
2022/01/31 08:03:13;;;;;;;37.05;4.25;;;;;;;4.78;100.00;100160.94;5057279;28;20036;-64
2022/01/31 08:05:39;;;;;;;19.80;3.28;;;;;;;4.79;100.00;100170.53;5039305;28;20029;-63
2022/01/31 08:08:05;;;;;;;21.45;3.15;;;;;;;4.78;100.00;100190.63;5033454;28;20108;-64
2022/01/31 08:10:32;;;;;;;15.50;1.98;;;;;;;4.76;100.00;100180.19;5036201;28;20028;-63
2022/01/31 08:13:00;;;;;;;13.30;2.05;;;;;;;4.78;100.00;100181.94;5039042;28;20039;-64
2022/01/31 08:15:28;;;;;;;16.00;2.10;;;;;;;4.80;100.00;100201.09;5041960;28;20083;-63
2022/01/31 08:17:53;;;;;;;17.05;3.17;;;;;;;4.79;100.00;100192.34;5049292;28;20071;-63
2022/01/31 08:20:19;;;;;;;19.85;2.70;;;;;;;4.82;100.00;100205.38;5040168;28;20796;-64
2022/01/31 08:22:44;;;;;;;16.02;2.75;;;;;;;4.87;100.00;100219.22;5042048;28;20064;-63
2022/01/31 08:25:14;;;;;;;19.95;2.83;;;;;;;4.92;100.00;100229.56;5024073;28;20041;-63
2022/01/31 08:27:47;;;;;;;21.90;2.80;;;;;;;4.95;100.00;100241.72;5042416;28;20037;-63
2022/01/31 08:30:18;;;;;;;21.52;2.50;;;;;;;4.98;100.00;100252.97;5039437;28;20118;-63
2022/01/31 08:32:45;;;;;;;17.10;3.10;;;;;;;5.01;100.00;100263.38;5041229;28;20028;-63
2022/01/31 08:37:58;;;;;;;16.88;2.28;;;;;;;5.07;100.00;100271.97;5036546;28;20029;-63
2022/01/31 08:40:24;;;;;;;14.85;2.47;;;;;;;5.08;100.00;100265.81;5037312;28;20406;-63
2022/01/31 08:42:49;;;;;;;13.10;2.10;;;;;;;5.09;100.00;100259.63;5036460;28;20341;-63
2022/01/31 08:45:15;;;;;;;15.45;2.35;;;;;;;5.08;100.00;100279.78;5038230;28;20608;-64
2022/01/31 08:47:41;;;;;;;17.45;2.65;;;;;;;5.08;100.00;100285.03;5041052;28;20184;-63
2022/01/31 08:50:08;;;;;;;13.10;2.08;;;;;;;5.10;100.00;100295.47;5038925;28;20137;-63
2022/01/31 08:52:34;;;;;;;26.63;2.80;;;;;;;5.12;100.00;100301.53;5041512;28;20029;-63
2022/01/31 08:55:00;;;;;;;19.70;2.40;;;;;;;5.16;100.00;100308.41;5040288;28;20037;-63
2022/01/31 08:57:25;;;;;;;11.20;2.35;;;;;;;5.17;100.00;100328.47;5040244;28;20040;-63
2022/01/31 08:59:52;;;;;;;14.10;2.10;;;;;;;5.17;100.00;100304.84;5039511;28;20035;-63
2022/01/31 09:02:25;;;;;;;17.42;2.63;;;;;;;5.18;100.00;100316.22;5021806;28;20028;-63
2022/01/31 09:04:52;;;;;;;12.93;2.15;;;;;;;5.20;100.00;100311.78;5039362;28;20361;-62
2022/01/31 09:07:20;;;;;;;12.57;2.15;;;;;;;5.21;100.00;100319.63;5039894;28;20033;-63
2022/01/31 09:09:53;;;;;;;10.85;2.33;;;;;;;5.24;100.00;100322.13;5039329;28;20052;-63
2022/01/31 09:12:19;;;;;;;;;;;;;;;5.24;100.00;100332.63;5041128;28;20036;-64
2022/01/31 09:14:45;;;;;;;10.80;2.15;;;;;;;5.24;100.00;100332.63;5038705;28;19922;-64
2022/01/31 09:17:10;;;;;;;13.85;2.10;;;;;;;5.26;100.00;100336.09;5039995;28;20056;-64
2022/01/31 09:19:36;;;;;;;14.55;2.10;;;;;;;5.24;100.00;100343.13;5037754;28;20479;-64
2022/01/31 09:22:01;;;;;;;17.45;2.65;;;;;;;5.26;100.00;100357.09;5040203;28;20033;-64
2022/01/31 09:24:28;;;;;;;14.93;2.17;;;;;;;5.29;100.00;100359.59;5037922;28;21411;-64
2022/01/31 09:26:54;;;;;;;17.13;2.47;;;;;;;5.33;100.00;100363.00;5040527;28;20353;-63
2022/01/31 09:29:20;;;;;;;17.92;2.20;;;;;;;5.40;100.00;100372.38;5040043;28;20020;-63
2022/01/31 09:31:45;;;;;;;17.35;2.55;;;;;;;5.46;100.00;100384.47;5040194;28;20025;-63
2022/01/31 09:34:11;;;;;;;13.80;2.25;;;;;;;5.50;100.00;100382.63;5037495;28;20480;-63
2022/01/31 09:36:37;;;;;;;17.60;2.38;;;;;;;5.55;100.00;100394.69;5039636;28;20045;-63
2022/01/31 09:39:03;;;;;;;19.17;2.70;;;;;;;5.60;100.00;100414.69;5038993;28;20037;-63
2022/01/31 09:41:31;;;;;;;17.20;2.47;;;;;;;5.61;100.00;100416.41;5038601;28;20075;-62
2022/01/31 09:49:11;;;;;;;16.52;2.45;;;;;;;5.66;100.00;100441.63;5037065;28;20112;-63
2022/01/31 09:51:36;;;;;;;19.38;2.60;;;;;;;5.66;100.00;100444.25;5039531;28;20100;-63
2022/01/31 09:54:03;;;;;;;18.70;3.03;;;;;;;5.67;100.00;100442.50;5039063;28;20369;-63
2022/01/31 09:56:33;;;;;;;17.70;2.40;;;;;;;5.69;100.00;100449.41;5037709;28;20033;-63
2022/01/31 09:58:59;;;;;;;15.18;2.38;;;;;;;5.72;100.00;100458.94;5039552;28;20371;-71
2022/01/31 10:01:30;;;;;;;11.52;2.20;;;;;;;5.76;100.00;100468.47;5036928;28;20602;-63
2022/01/31 10:03:59;;;;;;;10.65;1.70;;;;;;;5.79;100.00;100471.00;5037618;28;20024;-63
2022/01/31 10:06:35;;;;;;;19.30;2.30;;;;;;;5.80;100.00;100471.84;5038879;28;20028;-64
2022/01/31 10:09:03;;;;;;;13.63;2.03;;;;;;;5.79;100.00;100484.16;5038930;28;20036;-64
2022/01/31 10:11:37;;;;;;;22.85;2.88;;;;;;;5.78;100.00;100484.19;5036865;28;20029;-64
2022/01/31 10:17:04;;;;;;;14.50;1.98;;;;;;;5.74;100.00;100493.94;5038015;28;20036;-64
2022/01/31 10:19:37;;;;;;;13.98;1.92;;;;;;;5.74;100.00;100488.69;5038243;28;20057;-63
2022/01/31 10:22:06;;;;;;;15.70;2.20;;;;;;;5.77;100.00;100503.47;5037169;28;20025;-63
2022/01/31 10:24:33;;;;;;;7.53;1.40;;;;;;;5.78;100.00;100489.44;5039309;28;20548;-64
2022/01/31 10:27:13;;;;;;;9.73;1.70;;;;;;;5.78;100.00;100495.53;5039791;28;20033;-64
2022/01/31 10:29:39;;;;;;;5.32;1.20;;;;;;;5.81;100.00;100499.84;5028015;28;20041;-64
2022/01/31 10:32:10;;;;;;;7.85;1.23;;;;;;;5.80;100.00;100500.75;5037416;28;20145;-64
2022/01/31 10:34:51;;;;;;;9.95;1.70;;;;;;;5.77;100.00;100499.06;5038260;28;20390;-64
2022/01/31 10:37:18;;;;;;;9.50;1.50;;;;;;;5.75;100.00;100511.41;5038250;28;20037;-63
2022/01/31 10:56:52;;;;;;;7.22;1.70;;;;;;;5.47;100.00;100507.00;5037778;28;20111;-63
2022/01/31 10:59:51;;;;;;;11.13;2.00;;;;;;;5.50;100.00;100512.13;5038502;28;20479;-63
2022/01/31 11:02:23;;;;;;;14.00;2.47;;;;;;;5.52;100.00;100520.84;5037030;28;20048;-63
2022/01/31 11:04:49;;;;;;;20.63;2.80;;;;;;;5.55;100.00;100526.00;5037296;28;20036;-65
2022/01/31 11:07:17;;;;;;;22.25;3.78;;;;;;;5.61;100.00;100518.84;5036338;28;20140;-64
2022/01/31 11:09:45;;;;;;;29.48;4.50;;;;;;;5.67;100.00;100523.91;5038942;28;20061;-64
2022/01/31 11:12:12;;;;;;;28.65;4.78;;;;;;;5.71;100.00;100517.66;5038821;28;20044;-63
2022/01/31 11:14:39;;;;;;;26.38;4.25;;;;;;;5.76;100.00;100518.38;5038416;28;20052;-63
2022/01/31 11:17:14;;;;;;;34.45;5.05;;;;;;;5.84;100.00;100532.13;5038686;28;20029;-64
2022/01/31 11:19:42;;;;;;;34.45;5.25;;;;;;;5.90;100.00;100522.34;5037976;28;20589;-64
2022/01/31 11:22:10;;;;;;;35.60;5.25;;;;;;;5.91;100.00;100524.06;5042919;28;20553;-64
2022/01/31 11:24:43;;;;;;;37.55;5.43;;;;;;;5.92;100.00;100544.16;5037623;28;20037;-64
2022/01/31 11:27:11;;;;;;;32.28;5.00;;;;;;;5.93;100.00;100545.88;5039415;28;20180;-63
2022/01/31 11:29:49;;;;;;;39.13;5.03;;;;;;;5.97;100.00;100552.78;5037625;28;20283;-63
2022/01/31 11:32:15;;;;;;;37.72;5.45;;;;;;;6.00;100.00;100557.97;5038421;28;20032;-63
2022/01/31 11:34:43;;;;;;;33.13;5.05;;;;;;;6.04;100.00;100564.84;5040345;28;20535;-63
2022/01/31 11:37:10;;;;;;;35.72;5.30;;;;;;;6.07;100.00;100564.78;5042705;28;20029;-63
2022/01/31 11:39:38;;;;;;;27.05;4.32;;;;;;;6.13;100.00;100557.59;5042702;28;20032;-64
2022/01/31 11:42:04;;;;;;;32.17;4.28;;;;;;;6.16;100.00;100583.78;5041054;28;20053;-64
2022/01/31 11:44:54;;;;;;;25.98;4.15;;;;;;;6.17;100.00;100586.38;5036440;28;20121;-63
2022/01/31 11:47:25;;;;;;;25.80;3.83;;;;;;;6.22;100.00;100609.88;5041524;28;20159;-63
2022/01/31 11:50:07;;;;;;;26.50;3.65;;;;;;;6.25;100.00;100620.28;5022124;28;20116;-63